sensor_id;sensor_type;location;lat;lon;timestamp;temperature;humidity
15384;DHT22;7790;53.022;12.968;2023-08-12T00:00:04;19.60;62.20
15384;DHT22;7790;53.022;12.968;2023-08-12T00:04:23;19.50;62.20
15384;DHT22;7790;53.022;12.968;2023-08-12T00:08:24;19.50;62.10
15384;DHT22;7790;53.022;12.968;2023-08-12T00:12:25;19.50;62.10
15384;DHT22;7790;53.022;12.968;2023-08-12T00:16:26;19.50;62.10
15384;DHT22;7790;53.022;12.968;2023-08-12T00:20:27;19.50;62.00
15384;DHT22;7790;53.022;12.968;2023-08-12T00:24:28;19.50;62.00
15384;DHT22;7790;53.022;12.968;2023-08-12T00:28:29;19.50;62.00
15384;DHT22;7790;53.022;12.968;2023-08-12T00:32:30;19.50;62.10
15384;DHT22;7790;53.022;12.968;2023-08-12T00:36:31;19.50;62.00
15384;DHT22;7790;53.022;12.968;2023-08-12T00:40:32;19.50;62.00
15384;DHT22;7790;53.022;12.968;2023-08-12T00:44:33;19.50;62.10
15384;DHT22;7790;53.022;12.968;2023-08-12T00:48:34;19.50;62.10
15384;DHT22;7790;53.022;12.968;2023-08-12T00:52:35;19.50;62.00
15384;DHT22;7790;53.022;12.968;2023-08-12T00:56:36;19.50;62.10
15384;DHT22;7790;53.022;12.968;2023-08-12T01:00:37;19.50;62.20
15384;DHT22;7790;53.022;12.968;2023-08-12T01:04:38;19.50;62.00
15384;DHT22;7790;53.022;12.968;2023-08-12T01:08:39;19.40;62.40
15384;DHT22;7790;53.022;12.968;2023-08-12T01:12:57;19.50;62.40
15384;DHT22;7790;53.022;12.968;2023-08-12T01:17:02;19.50;62.40
15384;DHT22;7790;53.022;12.968;2023-08-12T01:21:08;19.40;62.00
15384;DHT22;7790;53.022;12.968;2023-08-12T01:25:13;19.40;61.80
15384;DHT22;7790;53.022;12.968;2023-08-12T01:29:14;19.40;61.70
15384;DHT22;7790;53.022;12.968;2023-08-12T01:33:21;19.40;61.80
15384;DHT22;7790;53.022;12.968;2023-08-12T01:37:27;19.40;62.10
15384;DHT22;7790;53.022;12.968;2023-08-12T01:41:28;19.40;62.10
15384;DHT22;7790;53.022;12.968;2023-08-12T01:45:33;19.40;61.90
15384;DHT22;7790;53.022;12.968;2023-08-12T01:49:33;19.40;62.00
15384;DHT22;7790;53.022;12.968;2023-08-12T01:53:35;19.40;62.00
15384;DHT22;7790;53.022;12.968;2023-08-12T01:57:35;19.40;61.80
15384;DHT22;7790;53.022;12.968;2023-08-12T02:01:38;19.40;61.60
15384;DHT22;7790;53.022;12.968;2023-08-12T02:05:40;19.40;61.80
15384;DHT22;7790;53.022;12.968;2023-08-12T02:09:42;19.40;61.90
15384;DHT22;7790;53.022;12.968;2023-08-12T02:13:42;19.40;62.00
15384;DHT22;7790;53.022;12.968;2023-08-12T02:17:43;19.40;62.10
15384;DHT22;7790;53.022;12.968;2023-08-12T02:21:44;19.40;62.00
15384;DHT22;7790;53.022;12.968;2023-08-12T02:25:46;19.40;61.80
15384;DHT22;7790;53.022;12.968;2023-08-12T02:29:46;19.40;61.80
15384;DHT22;7790;53.022;12.968;2023-08-12T02:33:47;19.40;61.60
15384;DHT22;7790;53.022;12.968;2023-08-12T02:37:50;19.40;61.60
15384;DHT22;7790;53.022;12.968;2023-08-12T02:41:50;19.40;61.70
15384;DHT22;7790;53.022;12.968;2023-08-12T02:45:51;19.30;61.40
15384;DHT22;7790;53.022;12.968;2023-08-12T02:49:52;19.30;61.40
15384;DHT22;7790;53.022;12.968;2023-08-12T02:53:53;19.30;61.60
15384;DHT22;7790;53.022;12.968;2023-08-12T02:57:55;19.30;61.30
15384;DHT22;7790;53.022;12.968;2023-08-12T03:01:56;19.30;61.60
15384;DHT22;7790;53.022;12.968;2023-08-12T03:05:57;19.30;61.60
15384;DHT22;7790;53.022;12.968;2023-08-12T03:09:58;19.30;61.40
15384;DHT22;7790;53.022;12.968;2023-08-12T03:13:59;19.30;61.50
15384;DHT22;7790;53.022;12.968;2023-08-12T03:18:01;19.30;61.40
15384;DHT22;7790;53.022;12.968;2023-08-12T03:22:02;19.30;61.40
15384;DHT22;7790;53.022;12.968;2023-08-12T03:26:04;19.30;61.40
15384;DHT22;7790;53.022;12.968;2023-08-12T03:30:06;19.30;61.70
15384;DHT22;7790;53.022;12.968;2023-08-12T03:34:07;19.30;62.50
15384;DHT22;7790;53.022;12.968;2023-08-12T03:38:09;19.20;62.00
15384;DHT22;7790;53.022;12.968;2023-08-12T03:42:10;19.20;62.10
15384;DHT22;7790;53.022;12.968;2023-08-12T03:46:13;19.10;62.30
15384;DHT22;7790;53.022;12.968;2023-08-12T03:50:14;19.10;62.30
15384;DHT22;7790;53.022;12.968;2023-08-12T03:54:15;19.10;62.20
15384;DHT22;7790;53.022;12.968;2023-08-12T03:58:16;19.10;62.40
15384;DHT22;7790;53.022;12.968;2023-08-12T04:02:17;19.10;62.50
15384;DHT22;7790;53.022;12.968;2023-08-12T04:06:19;19.10;62.60
15384;DHT22;7790;53.022;12.968;2023-08-12T04:10:20;19.10;62.70
15384;DHT22;7790;53.022;12.968;2023-08-12T04:14:21;19.10;63.00
15384;DHT22;7790;53.022;12.968;2023-08-12T04:18:22;19.10;62.90
15384;DHT22;7790;53.022;12.968;2023-08-12T04:22:24;19.10;63.20
15384;DHT22;7790;53.022;12.968;2023-08-12T04:26:25;19.10;63.10
15384;DHT22;7790;53.022;12.968;2023-08-12T04:30:27;19.00;63.30
15384;DHT22;7790;53.022;12.968;2023-08-12T04:34:29;19.10;63.40
15384;DHT22;7790;53.022;12.968;2023-08-12T04:38:30;19.10;63.60
15384;DHT22;7790;53.022;12.968;2023-08-12T04:42:33;19.10;63.80
15384;DHT22;7790;53.022;12.968;2023-08-12T04:46:34;19.10;63.70
15384;DHT22;7790;53.022;12.968;2023-08-12T04:50:36;19.10;63.80
15384;DHT22;7790;53.022;12.968;2023-08-12T04:54:39;19.10;63.60
15384;DHT22;7790;53.022;12.968;2023-08-12T04:58:40;19.20;63.70
15384;DHT22;7790;53.022;12.968;2023-08-12T05:02:41;19.20;63.80
15384;DHT22;7790;53.022;12.968;2023-08-12T05:06:42;19.10;63.90
15384;DHT22;7790;53.022;12.968;2023-08-12T05:10:43;19.20;63.90
15384;DHT22;7790;53.022;12.968;2023-08-12T05:14:45;19.20;64.00
15384;DHT22;7790;53.022;12.968;2023-08-12T05:18:46;19.20;63.90
15384;DHT22;7790;53.022;12.968;2023-08-12T05:22:47;19.20;63.60
15384;DHT22;7790;53.022;12.968;2023-08-12T05:26:48;19.20;63.60
15384;DHT22;7790;53.022;12.968;2023-08-12T05:30:49;19.20;63.70
15384;DHT22;7790;53.022;12.968;2023-08-12T05:34:52;19.20;63.90
15384;DHT22;7790;53.022;12.968;2023-08-12T05:38:53;19.30;63.90
15384;DHT22;7790;53.022;12.968;2023-08-12T05:42:54;19.40;62.80
15384;DHT22;7790;53.022;12.968;2023-08-12T05:46:55;19.40;62.30
15384;DHT22;7790;53.022;12.968;2023-08-12T05:50:55;19.50;62.30
15384;DHT22;7790;53.022;12.968;2023-08-12T05:54:56;19.50;62.10
15384;DHT22;7790;53.022;12.968;2023-08-12T05:58:57;19.50;62.10
15384;DHT22;7790;53.022;12.968;2023-08-12T06:02:58;19.50;62.10
15384;DHT22;7790;53.022;12.968;2023-08-12T06:06:59;19.50;62.20
15384;DHT22;7790;53.022;12.968;2023-08-12T06:11:00;19.60;62.10
15384;DHT22;7790;53.022;12.968;2023-08-12T06:15:01;19.60;62.10
15384;DHT22;7790;53.022;12.968;2023-08-12T06:19:02;19.70;62.20
15384;DHT22;7790;53.022;12.968;2023-08-12T06:23:03;19.70;62.20
15384;DHT22;7790;53.022;12.968;2023-08-12T06:27:04;19.70;62.40
15384;DHT22;7790;53.022;12.968;2023-08-12T06:31:06;19.70;62.30
15384;DHT22;7790;53.022;12.968;2023-08-12T06:35:07;19.70;62.40
15384;DHT22;7790;53.022;12.968;2023-08-12T06:39:08;19.70;62.50
15384;DHT22;7790;53.022;12.968;2023-08-12T06:43:09;19.70;62.50
15384;DHT22;7790;53.022;12.968;2023-08-12T06:47:10;19.70;62.40
15384;DHT22;7790;53.022;12.968;2023-08-12T06:51:10;19.80;62.40
15384;DHT22;7790;53.022;12.968;2023-08-12T06:55:11;19.80;62.30
15384;DHT22;7790;53.022;12.968;2023-08-12T06:59:12;19.80;62.20
15384;DHT22;7790;53.022;12.968;2023-08-12T07:03:13;19.80;62.30
15384;DHT22;7790;53.022;12.968;2023-08-12T07:07:14;19.80;62.20
15384;DHT22;7790;53.022;12.968;2023-08-12T07:11:15;19.80;62.00
15384;DHT22;7790;53.022;12.968;2023-08-12T07:15:16;19.90;62.10
15384;DHT22;7790;53.022;12.968;2023-08-12T07:19:17;19.80;62.00
15384;DHT22;7790;53.022;12.968;2023-08-12T07:23:17;19.80;62.00
15384;DHT22;7790;53.022;12.968;2023-08-12T07:27:18;19.90;62.00
15384;DHT22;7790;53.022;12.968;2023-08-12T07:31:19;19.90;62.00
15384;DHT22;7790;53.022;12.968;2023-08-12T07:35:20;19.90;62.60
15384;DHT22;7790;53.022;12.968;2023-08-12T07:39:21;19.90;61.80
15384;DHT22;7790;53.022;12.968;2023-08-12T07:43:22;19.90;61.80
15384;DHT22;7790;53.022;12.968;2023-08-12T07:47:23;19.90;61.70
15384;DHT22;7790;53.022;12.968;2023-08-12T07:51:24;19.90;61.70
15384;DHT22;7790;53.022;12.968;2023-08-12T07:55:26;19.90;61.70
15384;DHT22;7790;53.022;12.968;2023-08-12T07:59:27;19.90;61.80
15384;DHT22;7790;53.022;12.968;2023-08-12T08:03:28;19.90;61.70
15384;DHT22;7790;53.022;12.968;2023-08-12T08:07:29;19.90;61.50
15384;DHT22;7790;53.022;12.968;2023-08-12T08:11:31;19.90;61.50
15384;DHT22;7790;53.022;12.968;2023-08-12T08:15:32;19.90;61.50
15384;DHT22;7790;53.022;12.968;2023-08-12T08:19:33;19.90;61.40
15384;DHT22;7790;53.022;12.968;2023-08-12T08:23:34;19.90;61.40
15384;DHT22;7790;53.022;12.968;2023-08-12T08:27:35;19.90;61.40
15384;DHT22;7790;53.022;12.968;2023-08-12T08:31:35;19.90;61.40
15384;DHT22;7790;53.022;12.968;2023-08-12T08:35:36;19.90;61.30
15384;DHT22;7790;53.022;12.968;2023-08-12T08:39:37;19.90;61.20
15384;DHT22;7790;53.022;12.968;2023-08-12T08:43:41;19.90;61.20
15384;DHT22;7790;53.022;12.968;2023-08-12T08:47:45;19.90;61.10
15384;DHT22;7790;53.022;12.968;2023-08-12T08:51:48;19.90;61.20
15384;DHT22;7790;53.022;12.968;2023-08-12T08:55:49;19.90;61.30
15384;DHT22;7790;53.022;12.968;2023-08-12T08:59:53;19.90;61.10
15384;DHT22;7790;53.022;12.968;2023-08-12T09:03:53;19.90;61.00
15384;DHT22;7790;53.022;12.968;2023-08-12T09:07:55;19.90;61.00
15384;DHT22;7790;53.022;12.968;2023-08-12T09:11:57;19.90;61.00
15384;DHT22;7790;53.022;12.968;2023-08-12T09:15:58;20.00;60.90
15384;DHT22;7790;53.022;12.968;2023-08-12T09:19:59;20.00;60.80
15384;DHT22;7790;53.022;12.968;2023-08-12T09:24:03;20.00;60.80
15384;DHT22;7790;53.022;12.968;2023-08-12T09:28:05;20.00;61.20
15384;DHT22;7790;53.022;12.968;2023-08-12T09:32:10;20.00;61.30
15384;DHT22;7790;53.022;12.968;2023-08-12T09:36:11;20.10;62.10
15384;DHT22;7790;53.022;12.968;2023-08-12T09:40:12;20.10;62.40
15384;DHT22;7790;53.022;12.968;2023-08-12T09:44:14;20.10;62.50
15384;DHT22;7790;53.022;12.968;2023-08-12T09:48:17;20.20;62.70
15384;DHT22;7790;53.022;12.968;2023-08-12T09:52:17;20.20;63.60
15384;DHT22;7790;53.022;12.968;2023-08-12T09:56:19;20.20;63.00
15384;DHT22;7790;53.022;12.968;2023-08-12T10:00:23;20.20;62.90
15384;DHT22;7790;53.022;12.968;2023-08-12T10:04:28;20.30;63.10
15384;DHT22;7790;53.022;12.968;2023-08-12T10:08:31;20.30;63.30
15384;DHT22;7790;53.022;12.968;2023-08-12T10:12:33;20.30;63.30
15384;DHT22;7790;53.022;12.968;2023-08-12T10:16:35;20.30;63.10
15384;DHT22;7790;53.022;12.968;2023-08-12T10:20:37;20.30;63.20
15384;DHT22;7790;53.022;12.968;2023-08-12T10:24:38;20.40;63.20
15384;DHT22;7790;53.022;12.968;2023-08-12T10:28:40;20.40;63.30
15384;DHT22;7790;53.022;12.968;2023-08-12T10:32:41;20.40;63.50
15384;DHT22;7790;53.022;12.968;2023-08-12T10:36:42;20.50;63.80
15384;DHT22;7790;53.022;12.968;2023-08-12T10:40:44;20.40;63.80
15384;DHT22;7790;53.022;12.968;2023-08-12T10:44:51;20.50;63.70
15384;DHT22;7790;53.022;12.968;2023-08-12T10:49:06;20.50;64.00
15384;DHT22;7790;53.022;12.968;2023-08-12T10:57:35;20.60;64.30
15384;DHT22;7790;53.022;12.968;2023-08-12T11:01:38;20.60;64.60
15384;DHT22;7790;53.022;12.968;2023-08-12T11:05:39;20.60;64.40
15384;DHT22;7790;53.022;12.968;2023-08-12T11:09:40;20.60;64.50
15384;DHT22;7790;53.022;12.968;2023-08-12T11:13:53;20.60;64.20
15384;DHT22;7790;53.022;12.968;2023-08-12T11:17:55;20.60;64.20
15384;DHT22;7790;53.022;12.968;2023-08-12T11:21:56;20.60;64.40
15384;DHT22;7790;53.022;12.968;2023-08-12T11:25:58;20.60;64.80
15384;DHT22;7790;53.022;12.968;2023-08-12T11:29:59;20.50;65.00
15384;DHT22;7790;53.022;12.968;2023-08-12T11:34:00;20.50;65.00
15384;DHT22;7790;53.022;12.968;2023-08-12T11:38:00;20.50;64.10
15384;DHT22;7790;53.022;12.968;2023-08-12T11:42:02;20.50;63.90
15384;DHT22;7790;53.022;12.968;2023-08-12T11:46:03;20.50;63.90
15384;DHT22;7790;53.022;12.968;2023-08-12T11:50:08;20.50;63.80
15384;DHT22;7790;53.022;12.968;2023-08-12T11:54:09;20.50;64.00
15384;DHT22;7790;53.022;12.968;2023-08-12T11:58:13;20.50;63.70
15384;DHT22;7790;53.022;12.968;2023-08-12T12:02:15;20.50;63.50
15384;DHT22;7790;53.022;12.968;2023-08-12T12:06:16;20.50;63.60
15384;DHT22;7790;53.022;12.968;2023-08-12T12:14:28;20.50;63.50
15384;DHT22;7790;53.022;12.968;2023-08-12T12:18:29;20.60;64.30
15384;DHT22;7790;53.022;12.968;2023-08-12T12:22:32;20.70;64.90
15384;DHT22;7790;53.022;12.968;2023-08-12T12:26:34;20.80;65.40
15384;DHT22;7790;53.022;12.968;2023-08-12T12:30:36;20.80;65.70
15384;DHT22;7790;53.022;12.968;2023-08-12T12:34:38;20.80;65.90
15384;DHT22;7790;53.022;12.968;2023-08-12T12:38:39;20.80;65.90
15384;DHT22;7790;53.022;12.968;2023-08-12T12:42:40;20.80;66.00
15384;DHT22;7790;53.022;12.968;2023-08-12T12:46:41;20.80;66.20
15384;DHT22;7790;53.022;12.968;2023-08-12T12:50:42;20.80;65.90
15384;DHT22;7790;53.022;12.968;2023-08-12T12:54:44;20.80;66.80
15384;DHT22;7790;53.022;12.968;2023-08-12T12:58:45;20.80;66.60
15384;DHT22;7790;53.022;12.968;2023-08-12T13:02:46;20.80;66.90
15384;DHT22;7790;53.022;12.968;2023-08-12T13:06:47;20.90;66.80
15384;DHT22;7790;53.022;12.968;2023-08-12T13:10:47;20.80;66.30
15384;DHT22;7790;53.022;12.968;2023-08-12T13:14:48;20.80;66.30
15384;DHT22;7790;53.022;12.968;2023-08-12T13:18:49;20.80;66.10
15384;DHT22;7790;53.022;12.968;2023-08-12T13:22:50;20.70;65.80
15384;DHT22;7790;53.022;12.968;2023-08-12T13:26:51;20.70;65.80
15384;DHT22;7790;53.022;12.968;2023-08-12T13:30:53;20.70;65.90
15384;DHT22;7790;53.022;12.968;2023-08-12T13:34:54;20.70;65.50
15384;DHT22;7790;53.022;12.968;2023-08-12T13:38:54;20.70;66.00
15384;DHT22;7790;53.022;12.968;2023-08-12T13:42:56;20.70;65.50
15384;DHT22;7790;53.022;12.968;2023-08-12T13:46:56;20.70;65.90
15384;DHT22;7790;53.022;12.968;2023-08-12T13:50:57;20.70;65.80
15384;DHT22;7790;53.022;12.968;2023-08-12T13:54:59;20.70;65.60
15384;DHT22;7790;53.022;12.968;2023-08-12T13:58:59;20.70;65.60
15384;DHT22;7790;53.022;12.968;2023-08-12T14:03:00;20.70;65.80
15384;DHT22;7790;53.022;12.968;2023-08-12T14:07:01;20.70;65.80
15384;DHT22;7790;53.022;12.968;2023-08-12T14:11:02;20.70;66.20
15384;DHT22;7790;53.022;12.968;2023-08-12T14:15:03;20.70;65.80
15384;DHT22;7790;53.022;12.968;2023-08-12T14:19:04;20.70;66.30
15384;DHT22;7790;53.022;12.968;2023-08-12T14:23:05;20.70;66.40
15384;DHT22;7790;53.022;12.968;2023-08-12T14:27:06;20.70;66.50
15384;DHT22;7790;53.022;12.968;2023-08-12T14:31:07;20.70;66.30
15384;DHT22;7790;53.022;12.968;2023-08-12T14:35:08;20.70;67.10
15384;DHT22;7790;53.022;12.968;2023-08-12T14:39:10;20.70;66.90
15384;DHT22;7790;53.022;12.968;2023-08-12T14:43:10;20.70;66.60
15384;DHT22;7790;53.022;12.968;2023-08-12T14:47:11;20.70;66.20
15384;DHT22;7790;53.022;12.968;2023-08-12T14:51:12;20.70;66.70
15384;DHT22;7790;53.022;12.968;2023-08-12T14:55:13;20.70;66.50
15384;DHT22;7790;53.022;12.968;2023-08-12T14:59:14;20.70;66.40
15384;DHT22;7790;53.022;12.968;2023-08-12T15:03:15;20.70;66.30
15384;DHT22;7790;53.022;12.968;2023-08-12T15:07:16;20.70;66.70
15384;DHT22;7790;53.022;12.968;2023-08-12T15:11:19;20.70;66.70
15384;DHT22;7790;53.022;12.968;2023-08-12T15:15:19;20.70;66.00
15384;DHT22;7790;53.022;12.968;2023-08-12T15:19:20;20.70;66.40
15384;DHT22;7790;53.022;12.968;2023-08-12T15:23:21;20.70;66.30
15384;DHT22;7790;53.022;12.968;2023-08-12T15:27:22;20.70;66.70
15384;DHT22;7790;53.022;12.968;2023-08-12T15:31:23;20.70;66.60
15384;DHT22;7790;53.022;12.968;2023-08-12T15:35:24;20.70;66.60
15384;DHT22;7790;53.022;12.968;2023-08-12T15:39:25;20.70;66.80
15384;DHT22;7790;53.022;12.968;2023-08-12T15:43:26;20.70;66.90
15384;DHT22;7790;53.022;12.968;2023-08-12T15:47:27;20.70;67.10
15384;DHT22;7790;53.022;12.968;2023-08-12T15:51:28;20.70;67.00
15384;DHT22;7790;53.022;12.968;2023-08-12T15:55:29;20.70;67.00
15384;DHT22;7790;53.022;12.968;2023-08-12T15:59:30;20.70;66.80
15384;DHT22;7790;53.022;12.968;2023-08-12T16:03:30;20.70;67.10
15384;DHT22;7790;53.022;12.968;2023-08-12T16:07:31;20.70;66.90
15384;DHT22;7790;53.022;12.968;2023-08-12T16:11:33;20.70;67.20
15384;DHT22;7790;53.022;12.968;2023-08-12T16:15:33;20.70;66.80
15384;DHT22;7790;53.022;12.968;2023-08-12T16:19:34;20.70;66.90
15384;DHT22;7790;53.022;12.968;2023-08-12T16:23:36;20.70;66.90
15384;DHT22;7790;53.022;12.968;2023-08-12T16:27:37;20.70;67.20
15384;DHT22;7790;53.022;12.968;2023-08-12T16:31:38;20.70;67.20
15384;DHT22;7790;53.022;12.968;2023-08-12T16:35:39;20.70;66.80
15384;DHT22;7790;53.022;12.968;2023-08-12T16:39:40;20.70;67.70
15384;DHT22;7790;53.022;12.968;2023-08-12T16:43:41;20.70;67.00
15384;DHT22;7790;53.022;12.968;2023-08-12T16:47:42;20.70;67.70
15384;DHT22;7790;53.022;12.968;2023-08-12T16:51:43;20.70;67.00
15384;DHT22;7790;53.022;12.968;2023-08-12T16:55:44;20.70;67.30
15384;DHT22;7790;53.022;12.968;2023-08-12T16:59:45;20.80;67.90
15384;DHT22;7790;53.022;12.968;2023-08-12T17:03:45;20.80;68.20
15384;DHT22;7790;53.022;12.968;2023-08-12T17:07:46;20.80;69.00
15384;DHT22;7790;53.022;12.968;2023-08-12T17:11:47;20.80;69.00
15384;DHT22;7790;53.022;12.968;2023-08-12T17:15:48;20.90;70.40
15384;DHT22;7790;53.022;12.968;2023-08-12T17:19:49;20.90;70.90
15384;DHT22;7790;53.022;12.968;2023-08-12T17:23:50;20.90;70.90
15384;DHT22;7790;53.022;12.968;2023-08-12T17:27:51;20.90;70.70
15384;DHT22;7790;53.022;12.968;2023-08-12T17:31:52;20.90;71.60
15384;DHT22;7790;53.022;12.968;2023-08-12T17:35:52;20.90;71.50
15384;DHT22;7790;53.022;12.968;2023-08-12T17:39:53;20.90;71.80
15384;DHT22;7790;53.022;12.968;2023-08-12T17:43:54;20.90;71.20
15384;DHT22;7790;53.022;12.968;2023-08-12T17:47:57;20.90;71.90
15384;DHT22;7790;53.022;12.968;2023-08-12T17:51:58;20.90;72.90
15384;DHT22;7790;53.022;12.968;2023-08-12T17:55:59;20.90;73.50
15384;DHT22;7790;53.022;12.968;2023-08-12T18:00:00;20.90;73.80
15384;DHT22;7790;53.022;12.968;2023-08-12T18:04:01;20.90;74.30
15384;DHT22;7790;53.022;12.968;2023-08-12T18:08:01;20.90;73.80
15384;DHT22;7790;53.022;12.968;2023-08-12T18:12:03;20.90;73.80
15384;DHT22;7790;53.022;12.968;2023-08-12T18:16:04;20.90;74.30
15384;DHT22;7790;53.022;12.968;2023-08-12T18:20:05;20.90;74.00
15384;DHT22;7790;53.022;12.968;2023-08-12T18:24:06;20.90;73.30
15384;DHT22;7790;53.022;12.968;2023-08-12T18:28:07;20.90;73.50
15384;DHT22;7790;53.022;12.968;2023-08-12T18:32:08;20.90;73.10
15384;DHT22;7790;53.022;12.968;2023-08-12T18:36:09;20.90;73.10
15384;DHT22;7790;53.022;12.968;2023-08-12T18:40:10;20.90;72.80
15384;DHT22;7790;53.022;12.968;2023-08-12T18:44:11;20.90;72.30
15384;DHT22;7790;53.022;12.968;2023-08-12T18:48:12;20.90;73.00
15384;DHT22;7790;53.022;12.968;2023-08-12T18:52:13;20.90;72.70
15384;DHT22;7790;53.022;12.968;2023-08-12T18:56:14;20.90;72.90
15384;DHT22;7790;53.022;12.968;2023-08-12T19:00:15;20.90;73.00
15384;DHT22;7790;53.022;12.968;2023-08-12T19:04:16;20.90;73.40
15384;DHT22;7790;53.022;12.968;2023-08-12T19:08:17;20.90;72.70
15384;DHT22;7790;53.022;12.968;2023-08-12T19:12:18;20.90;72.60
15384;DHT22;7790;53.022;12.968;2023-08-12T19:16:19;20.90;73.60
15384;DHT22;7790;53.022;12.968;2023-08-12T19:20:21;20.90;72.60
15384;DHT22;7790;53.022;12.968;2023-08-12T19:24:22;20.90;72.70
15384;DHT22;7790;53.022;12.968;2023-08-12T19:28:23;20.90;72.50
15384;DHT22;7790;53.022;12.968;2023-08-12T19:32:23;20.90;72.60
15384;DHT22;7790;53.022;12.968;2023-08-12T19:36:24;20.90;73.00
15384;DHT22;7790;53.022;12.968;2023-08-12T19:40:26;20.90;72.70
15384;DHT22;7790;53.022;12.968;2023-08-12T19:44:27;20.90;72.70
15384;DHT22;7790;53.022;12.968;2023-08-12T19:48:28;20.90;72.90
15384;DHT22;7790;53.022;12.968;2023-08-12T19:52:30;20.90;72.50
15384;DHT22;7790;53.022;12.968;2023-08-12T19:56:31;20.90;72.00
15384;DHT22;7790;53.022;12.968;2023-08-12T20:00:31;20.90;72.50
15384;DHT22;7790;53.022;12.968;2023-08-12T20:04:32;20.90;71.60
15384;DHT22;7790;53.022;12.968;2023-08-12T20:08:33;20.90;71.60
15384;DHT22;7790;53.022;12.968;2023-08-12T20:12:34;20.80;71.20
15384;DHT22;7790;53.022;12.968;2023-08-12T20:16:35;20.80;71.00
15384;DHT22;7790;53.022;12.968;2023-08-12T20:20:36;20.80;70.80
15384;DHT22;7790;53.022;12.968;2023-08-12T20:24:37;20.80;70.60
15384;DHT22;7790;53.022;12.968;2023-08-12T20:28:38;20.80;71.30
15384;DHT22;7790;53.022;12.968;2023-08-12T20:32:39;20.80;70.50
15384;DHT22;7790;53.022;12.968;2023-08-12T20:36:40;20.80;70.40
15384;DHT22;7790;53.022;12.968;2023-08-12T20:40:41;20.80;70.30
15384;DHT22;7790;53.022;12.968;2023-08-12T20:44:42;20.80;70.10
15384;DHT22;7790;53.022;12.968;2023-08-12T20:48:43;20.80;70.10
15384;DHT22;7790;53.022;12.968;2023-08-12T20:52:44;20.80;69.90
15384;DHT22;7790;53.022;12.968;2023-08-12T20:56:45;20.80;69.80
15384;DHT22;7790;53.022;12.968;2023-08-12T21:00:46;20.80;69.80
15384;DHT22;7790;53.022;12.968;2023-08-12T21:04:47;20.80;69.70
15384;DHT22;7790;53.022;12.968;2023-08-12T21:08:48;20.80;69.50
15384;DHT22;7790;53.022;12.968;2023-08-12T21:12:49;20.80;69.50
15384;DHT22;7790;53.022;12.968;2023-08-12T21:16:50;20.80;69.60
15384;DHT22;7790;53.022;12.968;2023-08-12T21:20:50;20.80;69.50
15384;DHT22;7790;53.022;12.968;2023-08-12T21:24:51;20.80;69.40
15384;DHT22;7790;53.022;12.968;2023-08-12T21:28:52;20.80;69.50
15384;DHT22;7790;53.022;12.968;2023-08-12T21:32:53;20.80;69.50
15384;DHT22;7790;53.022;12.968;2023-08-12T21:36:54;20.80;69.70
15384;DHT22;7790;53.022;12.968;2023-08-12T21:40:55;20.80;69.50
15384;DHT22;7790;53.022;12.968;2023-08-12T21:44:56;20.80;69.60
15384;DHT22;7790;53.022;12.968;2023-08-12T21:48:57;20.80;69.50
15384;DHT22;7790;53.022;12.968;2023-08-12T21:52:58;20.80;69.50
15384;DHT22;7790;53.022;12.968;2023-08-12T21:56:59;20.80;69.70
15384;DHT22;7790;53.022;12.968;2023-08-12T22:01:00;20.80;69.70
15384;DHT22;7790;53.022;12.968;2023-08-12T22:05:01;20.80;69.70
15384;DHT22;7790;53.022;12.968;2023-08-12T22:09:02;20.80;69.70
15384;DHT22;7790;53.022;12.968;2023-08-12T22:13:03;20.80;69.70
15384;DHT22;7790;53.022;12.968;2023-08-12T22:17:04;20.80;69.80
15384;DHT22;7790;53.022;12.968;2023-08-12T22:21:06;20.80;69.70
15384;DHT22;7790;53.022;12.968;2023-08-12T22:25:08;20.80;69.50
15384;DHT22;7790;53.022;12.968;2023-08-12T22:29:08;20.80;69.50
15384;DHT22;7790;53.022;12.968;2023-08-12T22:33:09;20.90;69.60
15384;DHT22;7790;53.022;12.968;2023-08-12T22:37:10;20.80;69.60
15384;DHT22;7790;53.022;12.968;2023-08-12T22:41:11;20.80;69.60
15384;DHT22;7790;53.022;12.968;2023-08-12T22:45:12;20.80;69.60
15384;DHT22;7790;53.022;12.968;2023-08-12T22:49:13;20.80;69.30
15384;DHT22;7790;53.022;12.968;2023-08-12T22:53:14;20.80;69.50
15384;DHT22;7790;53.022;12.968;2023-08-12T22:57:15;20.80;69.80
15384;DHT22;7790;53.022;12.968;2023-08-12T23:01:16;20.80;69.80
15384;DHT22;7790;53.022;12.968;2023-08-12T23:05:17;20.90;69.60
15384;DHT22;7790;53.022;12.968;2023-08-12T23:09:18;20.80;69.80
15384;DHT22;7790;53.022;12.968;2023-08-12T23:13:20;20.80;69.50
15384;DHT22;7790;53.022;12.968;2023-08-12T23:17:23;20.90;69.70
15384;DHT22;7790;53.022;12.968;2023-08-12T23:21:24;20.90;69.50
15384;DHT22;7790;53.022;12.968;2023-08-12T23:25:25;20.90;69.80
15384;DHT22;7790;53.022;12.968;2023-08-12T23:29:25;20.90;69.90
15384;DHT22;7790;53.022;12.968;2023-08-12T23:33:26;20.90;70.10
15384;DHT22;7790;53.022;12.968;2023-08-12T23:37:27;20.90;70.10
15384;DHT22;7790;53.022;12.968;2023-08-12T23:41:28;20.90;70.20
15384;DHT22;7790;53.022;12.968;2023-08-12T23:45:29;20.90;70.20
15384;DHT22;7790;53.022;12.968;2023-08-12T23:49:30;20.90;70.20
15384;DHT22;7790;53.022;12.968;2023-08-12T23:53:31;20.90;70.30
15384;DHT22;7790;53.022;12.968;2023-08-12T23:57:32;20.90;70.30
